Time;durP1;ratioP1;P1;durP2;ratioP2;P2;SDS_P1;SDS_P2;PMS_P1;PMS_P2;Temp;Humidity;BMP_temperature;BMP_pressure;BME280_temperature;BME280_humidity;BME280_pressure;Samples;Min_cycle;Max_cycle;Signal;HPM_P1;HPM_P2
2022/12/16 00:01:33;;;;;;;68.03;29.67;;;;;;;7.07;95.46;97017.66;5108909;28;20281;-76
2022/12/16 00:04:00;;;;;;;61.27;28.63;;;;;;;7.12;96.01;97009.81;5089204;28;20188;-76
2022/12/16 00:06:33;;;;;;;73.43;32.20;;;;;;;7.10;96.33;97017.59;5108971;28;20189;-77
2022/12/16 00:09:00;;;;;;;55.33;27.50;;;;;;;7.17;96.09;97018.22;5107343;28;20223;-78
2022/12/16 00:11:27;;;;;;;57.70;28.53;;;;;;;7.20;95.54;97015.53;5090398;28;20281;-77
2022/12/16 00:13:54;;;;;;;58.53;28.77;;;;;;;7.29;95.14;97010.91;5086095;28;20288;-76
2022/12/16 00:16:21;;;;;;;64.40;27.90;;;;;;;7.45;94.30;97018.13;5087220;28;20191;-77
2022/12/16 00:18:48;;;;;;;58.50;28.30;;;;;;;7.44;94.46;97017.28;5088172;28;20278;-76
2022/12/16 00:21:18;;;;;;;58.37;28.83;;;;;;;7.55;94.05;97017.78;5085150;28;20933;-76
2022/12/16 00:23:46;;;;;;;54.30;27.27;;;;;;;7.46;93.36;97028.38;5086814;28;20216;-76
2022/12/16 00:26:13;;;;;;;57.40;26.37;;;;;;;7.30;93.26;97019.50;5086428;28;20211;-76
2022/12/16 00:28:41;;;;;;;51.10;25.57;;;;;;;7.37;93.23;97041.59;5088049;28;20314;-76
2022/12/16 00:31:08;;;;;;;58.27;27.20;;;;;;;7.22;94.90;97017.19;5087018;28;20191;-76
2022/12/16 00:33:35;;;;;;;53.83;25.47;;;;;;;7.29;95.21;97023.78;5087322;28;20188;-76
2022/12/16 00:36:02;;;;;;;47.63;26.93;;;;;;;7.33;94.79;97021.97;5087924;28;20187;-76
2022/12/16 00:38:29;;;;;;;48.03;27.00;;;;;;;7.24;95.41;97022.28;5086336;28;20191;-76
2022/12/16 00:40:56;;;;;;;49.50;24.60;;;;;;;7.43;94.74;97025.06;5087614;28;20231;-76
2022/12/16 00:43:23;;;;;;;46.33;24.43;;;;;;;7.51;93.91;97026.50;5084757;28;20773;-77
2022/12/16 00:45:50;;;;;;;46.30;24.37;;;;;;;7.62;93.18;97021.00;5087704;28;20746;-76
2022/12/16 00:48:21;;;;;;;50.33;26.13;;;;;;;7.62;93.12;97021.84;5085118;28;20223;-76
2022/12/16 00:50:53;;;;;;;43.13;23.10;;;;;;;7.69;92.02;97031.03;5087367;28;20193;-76
2022/12/16 00:53:23;;;;;;;39.43;24.23;;;;;;;7.78;92.27;97020.41;5087762;28;20273;-77
2022/12/16 00:55:51;;;;;;;42.13;21.30;;;;;;;7.70;91.98;97009.53;5084620;28;20616;-77
2022/12/16 00:58:19;;;;;;;37.80;22.17;;;;;;;7.86;91.79;97014.97;5087520;28;20265;-77
2022/12/16 01:00:46;;;;;;;40.37;22.60;;;;;;;7.79;91.14;97011.75;5086128;28;20188;-77
2022/12/16 01:03:13;;;;;;;44.43;23.60;;;;;;;7.84;90.85;97002.13;5087804;28;20238;-77
2022/12/16 01:05:47;;;;;;;38.83;21.27;;;;;;;7.85;90.32;96983.19;5086858;28;20188;-80
2022/12/16 01:08:14;;;;;;;38.13;20.60;;;;;;;7.72;90.53;96971.66;5086928;28;20208;-77
2022/12/16 01:10:41;;;;;;;38.60;21.03;;;;;;;7.92;90.75;96994.97;5086631;28;20188;-78
2022/12/16 01:13:08;;;;;;;42.67;20.77;;;;;;;7.88;90.61;96987.41;5118399;28;20781;-77
2022/12/16 01:15:36;;;;;;;44.07;25.27;;;;;;;7.79;90.72;97001.44;5105243;28;20226;-76
2022/12/16 01:18:03;;;;;;;40.70;22.80;;;;;;;7.63;91.52;97013.19;5087904;28;20270;-77
2022/12/16 01:20:32;;;;;;;39.07;21.83;;;;;;;7.74;92.05;97020.56;5107822;28;20188;-76
2022/12/16 01:22:59;;;;;;;39.03;21.60;;;;;;;7.67;91.61;97027.66;5106481;28;20959;-76
2022/12/16 01:25:26;;;;;;;40.30;22.00;;;;;;;7.71;91.56;97031.81;5107322;28;20190;-77
2022/12/16 01:27:53;;;;;;;42.37;21.50;;;;;;;7.58;91.57;97030.56;5107478;28;20686;-76
2022/12/16 01:30:22;;;;;;;38.10;19.70;;;;;;;7.43;91.96;97027.66;5121823;28;20194;-76
2022/12/16 01:32:49;;;;;;;29.07;18.17;;;;;;;7.35;91.56;97021.03;5107493;28;20546;-76
2022/12/16 01:35:17;;;;;;;29.50;17.37;;;;;;;7.26;91.23;97023.06;5106012;28;20192;-79
2022/12/16 01:38:04;;;;;;;33.60;18.07;;;;;;;7.08;91.63;96997.91;5107529;28;20760;-80
2022/12/16 01:40:31;;;;;;;39.77;20.50;;;;;;;7.14;92.91;97015.75;5106602;28;20271;-80
2022/12/16 01:42:58;;;;;;;39.27;20.60;;;;;;;7.18;93.60;97019.91;5122704;28;20186;-79
2022/12/16 01:45:34;;;;;;;41.30;21.13;;;;;;;7.12;93.58;97004.66;5107608;28;20184;-80
2022/12/16 01:48:15;;;;;;;39.10;20.47;;;;;;;7.29;94.31;97022.97;5105912;28;20237;-80
2022/12/16 01:50:43;;;;;;;36.93;19.43;;;;;;;7.46;93.55;97030.97;5107506;28;20577;-77
2022/12/16 01:53:09;;;;;;;32.30;20.13;;;;;;;7.68;92.67;97018.19;5109244;28;20192;-80
2022/12/16 01:55:44;;;;;;;36.30;19.00;;;;;;;7.75;91.92;97011.94;5111354;28;20186;-80
2022/12/16 01:58:51;;;;;;;33.10;19.13;;;;;;;7.81;92.04;97011.72;5111054;28;20179;-79
2022/12/16 02:01:31;;;;;;;32.53;18.97;;;;;;;7.87;91.13;97022.63;5109382;28;20278;-78
2022/12/16 02:04:01;;;;;;;30.07;18.07;;;;;;;7.82;90.75;97021.97;5111033;28;20189;-78
2022/12/16 02:06:32;;;;;;;32.63;17.57;;;;;;;7.82;91.28;97014.25;5110186;28;20192;-79
2022/12/16 02:09:05;;;;;;;30.90;17.20;;;;;;;7.74;90.77;97003.38;5110538;28;20751;-79
2022/12/16 02:11:50;;;;;;;29.40;17.27;;;;;;;7.84;90.46;96996.13;5111287;28;20679;-78
2022/12/16 02:14:23;;;;;;;31.73;17.80;;;;;;;7.95;90.25;97000.03;5109181;28;20215;-78
2022/12/16 02:16:50;;;;;;;30.17;19.57;;;;;;;7.94;90.47;96992.31;5111215;28;20188;-79
2022/12/16 02:19:48;;;;;;;29.03;18.10;;;;;;;7.83;90.69;96992.72;5109985;28;20218;-80
2022/12/16 02:22:55;;;;;;;28.23;17.43;;;;;;;7.92;90.84;96983.81;5109571;28;20188;-79
2022/12/16 02:25:42;;;;;;;31.17;18.50;;;;;;;7.79;90.59;96988.56;5072602;28;20253;-78
2022/12/16 02:28:47;;;;;;;27.50;16.77;;;;;;;7.80;90.72;96981.69;5109771;28;20576;-76
2022/12/16 02:31:39;;;;;;;29.40;18.17;;;;;;;7.66;91.28;96956.41;5026073;28;20210;-76
2022/12/16 02:34:17;;;;;;;25.67;17.57;;;;;;;7.90;90.24;96968.41;5027806;28;20197;-76
2022/12/16 02:37:10;;;;;;;27.73;15.63;;;;;;;7.79;90.13;96967.94;5086873;28;20190;-77
2022/12/16 02:39:41;;;;;;;26.70;15.83;;;;;;;7.74;90.78;96962.13;5104929;28;20210;-78
2022/12/16 02:42:23;;;;;;;23.83;15.13;;;;;;;7.70;90.88;96959.72;5125503;27;20192;-78
2022/12/16 02:45:19;;;;;;;26.57;15.60;;;;;;;7.54;91.65;96956.84;5129632;27;20195;-78
2022/12/16 02:47:46;;;;;;;24.60;15.57;;;;;;;7.59;91.82;96952.34;5130380;27;20255;-78
2022/12/16 02:50:25;;;;;;;25.00;15.20;;;;;;;7.70;91.29;96941.66;5130636;27;20580;-78
2022/12/16 02:52:53;;;;;;;25.27;15.87;;;;;;;7.67;91.33;96941.75;5129240;27;20187;-80
2022/12/16 02:55:31;;;;;;;23.07;16.03;;;;;;;7.73;92.37;96957.03;5130974;27;20193;-79
2022/12/16 02:58:01;;;;;;;23.00;14.97;;;;;;;7.25;91.15;96880.56;5129200;27;20189;-80
2022/12/16 03:00:39;;;;;;;25.53;16.33;;;;;;;7.88;91.64;96965.03;5130884;27;20190;-79
2022/12/16 03:03:18;;;;;;;28.37;18.47;;;;;;;7.94;90.82;96951.94;5130382;27;20184;-79
2022/12/16 03:05:48;;;;;;;30.83;18.70;;;;;;;8.04;90.66;96984.22;5129089;27;20187;-80
2022/12/16 03:08:22;;;;;;;27.47;17.23;;;;;;;8.07;90.48;96991.84;5130347;27;20653;-79
2022/12/16 03:10:55;;;;;;;26.93;16.43;;;;;;;7.95;89.97;96979.41;5128846;27;20181;-79
2022/12/16 03:13:22;;;;;;;27.27;16.40;;;;;;;8.15;90.24;96986.41;5130533;27;20178;-79
2022/12/16 03:15:53;;;;;;;24.10;16.33;;;;;;;8.00;90.64;96982.63;5129160;27;20230;-79
2022/12/16 03:18:21;;;;;;;27.40;16.90;;;;;;;7.83;90.88;96984.97;5129431;27;20187;-79
2022/12/16 03:20:59;;;;;;;27.13;17.37;;;;;;;7.64;92.54;96981.41;5130342;27;20202;-78
2022/12/16 03:23:35;;;;;;;35.40;21.37;;;;;;;7.43;93.70;96966.69;5128676;27;20228;-78
2022/12/16 03:26:07;;;;;;;47.67;26.63;;;;;;;7.61;93.96;96986.63;5130114;27;20198;-79
2022/12/16 03:28:37;;;;;;;34.50;20.47;;;;;;;7.36;93.81;96978.06;5110171;27;20219;-78
2022/12/16 03:31:28;;;;;;;30.33;19.17;;;;;;;7.23;94.89;96969.91;5129798;27;20190;-78
2022/12/16 03:34:09;;;;;;;30.23;20.10;;;;;;;7.58;94.48;96991.91;5130005;27;20729;-77
2022/12/16 03:36:38;;;;;;;29.07;19.07;;;;;;;7.78;93.74;96986.91;5128370;27;20214;-78
2022/12/16 03:39:07;;;;;;;32.37;19.10;;;;;;;7.83;93.36;96999.63;5111557;27;20252;-78
2022/12/16 03:41:35;;;;;;;29.57;17.80;;;;;;;7.86;92.55;96999.50;5128768;27;20251;-78
2022/12/16 03:44:02;;;;;;;35.33;19.70;;;;;;;7.84;92.64;96996.97;5129648;27;20191;-78
2022/12/16 03:46:29;;;;;;;29.43;17.37;;;;;;;7.58;92.63;96963.56;5129830;27;20183;-78
2022/12/16 03:48:56;;;;;;;29.43;18.03;;;;;;;7.83;92.81;96997.06;5129377;27;20705;-79
2022/12/16 03:51:23;;;;;;;30.00;17.93;;;;;;;7.84;92.63;97003.88;5129852;27;20205;-77
2022/12/16 03:53:50;;;;;;;27.00;17.20;;;;;;;7.83;92.48;96999.63;5092705;27;20187;-78
2022/12/16 03:56:17;;;;;;;27.50;17.37;;;;;;;7.96;91.70;96999.13;5129645;27;20191;-77
2022/12/16 03:58:45;;;;;;;30.70;18.33;;;;;;;7.98;91.60;96994.75;5128068;27;20179;-78
2022/12/16 04:01:13;;;;;;;29.43;18.07;;;;;;;8.11;91.18;96997.72;5129492;27;20191;-78
2022/12/16 04:03:40;;;;;;;29.80;18.50;;;;;;;8.13;90.99;97016.56;5128984;27;20260;-77
2022/12/16 04:06:07;;;;;;;30.73;19.03;;;;;;;7.97;91.07;96979.34;5110156;27;20205;-76
2022/12/16 04:08:34;;;;;;;30.87;18.97;;;;;;;8.12;90.52;97001.97;5129468;27;20694;-79
2022/12/16 04:25:16;;;;;;;24.03;14.87;;;;;;;7.77;91.61;97005.81;5128162;27;20198;-78
2022/12/16 04:27:45;;;;;;;27.07;16.27;;;;;;;7.96;92.00;97012.00;5128502;27;20466;-77
2022/12/16 04:30:18;;;;;;;25.90;15.50;;;;;;;8.05;90.78;97008.25;5129134;27;20179;-78
